sensor_id;sensor_type;location;lat;lon;timestamp;P1;durP1;ratioP1;P2;durP2;ratioP2
75680;SDS011;64294;49.176;16.626;2022-10-18T00:00:52;19.95;;;11.10;;
75680;SDS011;64294;49.176;16.626;2022-10-18T00:03:17;19.00;;;10.80;;
75680;SDS011;64294;49.176;16.626;2022-10-18T00:05:44;27.42;;;11.40;;
75680;SDS011;64294;49.176;16.626;2022-10-18T00:08:10;21.85;;;11.15;;
75680;SDS011;64294;49.176;16.626;2022-10-18T00:10:35;21.17;;;11.25;;
75680;SDS011;64294;49.176;16.626;2022-10-18T00:13:01;21.98;;;11.13;;
75680;SDS011;64294;49.176;16.626;2022-10-18T00:15:26;22.90;;;10.48;;
75680;SDS011;64294;49.176;16.626;2022-10-18T00:17:51;25.00;;;10.98;;
75680;SDS011;64294;49.176;16.626;2022-10-18T00:20:16;21.45;;;10.60;;
75680;SDS011;64294;49.176;16.626;2022-10-18T00:22:42;21.77;;;10.15;;
75680;SDS011;64294;49.176;16.626;2022-10-18T00:25:08;21.02;;;11.05;;
75680;SDS011;64294;49.176;16.626;2022-10-18T00:27:34;22.25;;;10.68;;
75680;SDS011;64294;49.176;16.626;2022-10-18T00:30:00;18.98;;;10.70;;
75680;SDS011;64294;49.176;16.626;2022-10-18T00:32:25;20.05;;;10.98;;
75680;SDS011;64294;49.176;16.626;2022-10-18T00:34:51;23.67;;;9.95;;
75680;SDS011;64294;49.176;16.626;2022-10-18T00:37:16;23.58;;;10.43;;
75680;SDS011;64294;49.176;16.626;2022-10-18T00:39:42;18.08;;;10.13;;
75680;SDS011;64294;49.176;16.626;2022-10-18T00:42:10;23.30;;;11.82;;
75680;SDS011;64294;49.176;16.626;2022-10-18T00:47:08;20.40;;;10.40;;
75680;SDS011;64294;49.176;16.626;2022-10-18T00:49:40;22.23;;;10.50;;
75680;SDS011;64294;49.176;16.626;2022-10-18T00:52:11;19.50;;;10.35;;
75680;SDS011;64294;49.176;16.626;2022-10-18T00:54:41;21.08;;;10.45;;
75680;SDS011;64294;49.176;16.626;2022-10-18T00:57:09;22.85;;;10.90;;
75680;SDS011;64294;49.176;16.626;2022-10-18T00:59:35;23.30;;;10.30;;
75680;SDS011;64294;49.176;16.626;2022-10-18T01:02:01;22.33;;;12.13;;
75680;SDS011;64294;49.176;16.626;2022-10-18T01:04:27;23.02;;;10.35;;
75680;SDS011;64294;49.176;16.626;2022-10-18T01:14:59;21.65;;;10.70;;
75680;SDS011;64294;49.176;16.626;2022-10-18T01:17:41;19.70;;;10.60;;
75680;SDS011;64294;49.176;16.626;2022-10-18T01:20:16;17.42;;;9.98;;
75680;SDS011;64294;49.176;16.626;2022-10-18T01:22:44;25.00;;;11.00;;
75680;SDS011;64294;49.176;16.626;2022-10-18T01:25:40;20.00;;;10.05;;
75680;SDS011;64294;49.176;16.626;2022-10-18T01:31:07;20.55;;;10.52;;
75680;SDS011;64294;49.176;16.626;2022-10-18T01:33:45;24.63;;;10.82;;
75680;SDS011;64294;49.176;16.626;2022-10-18T01:38:46;19.02;;;10.60;;
75680;SDS011;64294;49.176;16.626;2022-10-18T01:41:16;23.55;;;10.75;;
75680;SDS011;64294;49.176;16.626;2022-10-18T01:43:44;19.50;;;10.38;;
75680;SDS011;64294;49.176;16.626;2022-10-18T01:46:13;21.15;;;11.32;;
75680;SDS011;64294;49.176;16.626;2022-10-18T01:48:43;22.90;;;12.32;;
75680;SDS011;64294;49.176;16.626;2022-10-18T01:51:08;23.50;;;11.75;;
75680;SDS011;64294;49.176;16.626;2022-10-18T01:53:34;24.55;;;11.48;;
75680;SDS011;64294;49.176;16.626;2022-10-18T01:58:48;19.58;;;11.18;;
75680;SDS011;64294;49.176;16.626;2022-10-18T02:01:27;22.10;;;11.52;;
75680;SDS011;64294;49.176;16.626;2022-10-18T02:04:08;21.80;;;11.32;;
75680;SDS011;64294;49.176;16.626;2022-10-18T02:06:43;21.35;;;10.85;;
75680;SDS011;64294;49.176;16.626;2022-10-18T02:09:18;21.88;;;10.32;;
75680;SDS011;64294;49.176;16.626;2022-10-18T02:11:50;21.85;;;11.88;;
75680;SDS011;64294;49.176;16.626;2022-10-18T02:14:18;21.70;;;11.02;;
75680;SDS011;64294;49.176;16.626;2022-10-18T02:16:48;19.00;;;11.38;;
75680;SDS011;64294;49.176;16.626;2022-10-18T02:19:20;25.75;;;11.13;;
75680;SDS011;64294;49.176;16.626;2022-10-18T02:21:52;23.10;;;11.75;;
75680;SDS011;64294;49.176;16.626;2022-10-18T02:24:21;26.27;;;13.00;;
75680;SDS011;64294;49.176;16.626;2022-10-18T02:26:50;24.05;;;11.93;;
75680;SDS011;64294;49.176;16.626;2022-10-18T02:29:15;25.20;;;12.93;;
75680;SDS011;64294;49.176;16.626;2022-10-18T02:31:45;21.45;;;11.82;;
75680;SDS011;64294;49.176;16.626;2022-10-18T02:34:22;21.75;;;12.18;;
75680;SDS011;64294;49.176;16.626;2022-10-18T02:36:56;19.77;;;11.65;;
75680;SDS011;64294;49.176;16.626;2022-10-18T02:39:28;25.95;;;12.40;;
75680;SDS011;64294;49.176;16.626;2022-10-18T02:41:56;22.63;;;11.13;;
75680;SDS011;64294;49.176;16.626;2022-10-18T02:44:22;23.45;;;12.93;;
75680;SDS011;64294;49.176;16.626;2022-10-18T02:46:48;23.10;;;12.07;;
75680;SDS011;64294;49.176;16.626;2022-10-18T02:49:13;22.15;;;11.52;;
75680;SDS011;64294;49.176;16.626;2022-10-18T02:51:38;22.10;;;11.27;;
75680;SDS011;64294;49.176;16.626;2022-10-18T02:54:04;22.30;;;12.80;;
75680;SDS011;64294;49.176;16.626;2022-10-18T02:56:30;23.42;;;12.02;;
75680;SDS011;64294;49.176;16.626;2022-10-18T02:58:55;19.05;;;11.75;;
75680;SDS011;64294;49.176;16.626;2022-10-18T03:01:21;21.08;;;11.70;;
75680;SDS011;64294;49.176;16.626;2022-10-18T03:03:47;18.73;;;10.68;;
75680;SDS011;64294;49.176;16.626;2022-10-18T03:06:13;21.90;;;11.32;;
75680;SDS011;64294;49.176;16.626;2022-10-18T03:08:39;22.27;;;10.50;;
75680;SDS011;64294;49.176;16.626;2022-10-18T03:11:04;21.20;;;11.23;;
75680;SDS011;64294;49.176;16.626;2022-10-18T03:13:29;18.90;;;11.38;;
75680;SDS011;64294;49.176;16.626;2022-10-18T03:15:55;21.83;;;11.07;;
75680;SDS011;64294;49.176;16.626;2022-10-18T03:18:20;19.45;;;11.05;;
75680;SDS011;64294;49.176;16.626;2022-10-18T03:20:45;21.88;;;11.57;;
75680;SDS011;64294;49.176;16.626;2022-10-18T03:23:11;22.00;;;11.68;;
75680;SDS011;64294;49.176;16.626;2022-10-18T03:25:36;22.30;;;11.13;;
75680;SDS011;64294;49.176;16.626;2022-10-18T03:28:02;22.35;;;11.60;;
75680;SDS011;64294;49.176;16.626;2022-10-18T03:30:27;21.40;;;11.60;;
75680;SDS011;64294;49.176;16.626;2022-10-18T03:32:52;21.20;;;12.25;;
75680;SDS011;64294;49.176;16.626;2022-10-18T03:35:18;22.85;;;11.95;;
75680;SDS011;64294;49.176;16.626;2022-10-18T03:37:44;22.55;;;11.40;;
75680;SDS011;64294;49.176;16.626;2022-10-18T03:40:09;26.98;;;12.32;;
75680;SDS011;64294;49.176;16.626;2022-10-18T03:42:35;26.00;;;11.73;;
75680;SDS011;64294;49.176;16.626;2022-10-18T03:45:00;24.98;;;12.13;;
75680;SDS011;64294;49.176;16.626;2022-10-18T03:47:25;24.67;;;12.73;;
75680;SDS011;64294;49.176;16.626;2022-10-18T03:49:51;21.10;;;12.30;;
75680;SDS011;64294;49.176;16.626;2022-10-18T03:52:16;25.33;;;12.07;;
75680;SDS011;64294;49.176;16.626;2022-10-18T03:54:41;20.08;;;11.70;;
75680;SDS011;64294;49.176;16.626;2022-10-18T03:57:07;20.25;;;12.13;;
75680;SDS011;64294;49.176;16.626;2022-10-18T03:59:32;22.02;;;13.15;;
75680;SDS011;64294;49.176;16.626;2022-10-18T04:01:57;20.55;;;12.57;;
75680;SDS011;64294;49.176;16.626;2022-10-18T04:04:22;23.90;;;12.93;;
75680;SDS011;64294;49.176;16.626;2022-10-18T04:06:48;23.35;;;12.32;;
75680;SDS011;64294;49.176;16.626;2022-10-18T04:09:13;25.00;;;12.98;;
75680;SDS011;64294;49.176;16.626;2022-10-18T04:11:39;22.90;;;12.60;;
75680;SDS011;64294;49.176;16.626;2022-10-18T04:14:04;24.77;;;13.07;;
75680;SDS011;64294;49.176;16.626;2022-10-18T04:16:29;21.45;;;12.85;;
75680;SDS011;64294;49.176;16.626;2022-10-18T04:18:55;23.92;;;12.88;;
75680;SDS011;64294;49.176;16.626;2022-10-18T04:21:20;29.85;;;13.10;;
75680;SDS011;64294;49.176;16.626;2022-10-18T04:23:46;24.27;;;13.60;;
75680;SDS011;64294;49.176;16.626;2022-10-18T04:26:12;24.52;;;13.35;;
75680;SDS011;64294;49.176;16.626;2022-10-18T04:28:38;31.35;;;13.07;;
75680;SDS011;64294;49.176;16.626;2022-10-18T04:31:05;26.40;;;13.70;;
75680;SDS011;64294;49.176;16.626;2022-10-18T04:33:30;26.48;;;13.43;;
75680;SDS011;64294;49.176;16.626;2022-10-18T04:35:56;25.27;;;12.73;;
75680;SDS011;64294;49.176;16.626;2022-10-18T04:38:21;31.67;;;14.07;;
75680;SDS011;64294;49.176;16.626;2022-10-18T04:40:46;28.73;;;13.38;;
75680;SDS011;64294;49.176;16.626;2022-10-18T04:43:12;37.80;;;14.50;;
75680;SDS011;64294;49.176;16.626;2022-10-18T04:45:37;29.80;;;14.13;;
75680;SDS011;64294;49.176;16.626;2022-10-18T04:48:03;30.15;;;15.05;;
75680;SDS011;64294;49.176;16.626;2022-10-18T04:50:29;28.20;;;14.10;;
75680;SDS011;64294;49.176;16.626;2022-10-18T04:52:54;28.05;;;14.35;;
75680;SDS011;64294;49.176;16.626;2022-10-18T04:55:19;27.95;;;14.38;;
75680;SDS011;64294;49.176;16.626;2022-10-18T04:57:45;26.95;;;14.20;;
75680;SDS011;64294;49.176;16.626;2022-10-18T05:00:10;29.40;;;14.15;;
75680;SDS011;64294;49.176;16.626;2022-10-18T05:02:36;25.50;;;13.85;;
75680;SDS011;64294;49.176;16.626;2022-10-18T05:05:02;28.65;;;14.30;;
75680;SDS011;64294;49.176;16.626;2022-10-18T05:07:27;28.23;;;14.30;;
75680;SDS011;64294;49.176;16.626;2022-10-18T05:09:52;27.90;;;14.18;;
75680;SDS011;64294;49.176;16.626;2022-10-18T05:12:18;29.75;;;15.00;;
75680;SDS011;64294;49.176;16.626;2022-10-18T05:14:43;31.77;;;15.15;;
75680;SDS011;64294;49.176;16.626;2022-10-18T05:17:08;24.80;;;13.73;;
75680;SDS011;64294;49.176;16.626;2022-10-18T05:19:35;22.90;;;13.40;;
75680;SDS011;64294;49.176;16.626;2022-10-18T05:22:00;31.23;;;14.40;;
75680;SDS011;64294;49.176;16.626;2022-10-18T05:24:26;33.38;;;14.85;;
75680;SDS011;64294;49.176;16.626;2022-10-18T05:26:51;31.80;;;15.15;;
75680;SDS011;64294;49.176;16.626;2022-10-18T05:29:16;28.40;;;13.75;;
75680;SDS011;64294;49.176;16.626;2022-10-18T05:31:42;25.77;;;13.07;;
75680;SDS011;64294;49.176;16.626;2022-10-18T05:34:07;25.08;;;13.52;;
75680;SDS011;64294;49.176;16.626;2022-10-18T05:36:32;23.73;;;13.18;;
75680;SDS011;64294;49.176;16.626;2022-10-18T05:38:58;27.13;;;13.82;;
75680;SDS011;64294;49.176;16.626;2022-10-18T05:41:23;35.47;;;15.07;;
75680;SDS011;64294;49.176;16.626;2022-10-18T05:43:48;28.98;;;13.18;;
75680;SDS011;64294;49.176;16.626;2022-10-18T05:46:14;24.17;;;13.48;;
75680;SDS011;64294;49.176;16.626;2022-10-18T05:48:39;31.08;;;15.30;;
75680;SDS011;64294;49.176;16.626;2022-10-18T05:51:04;30.88;;;14.57;;
75680;SDS011;64294;49.176;16.626;2022-10-18T05:53:30;27.20;;;14.20;;
75680;SDS011;64294;49.176;16.626;2022-10-18T05:55:58;26.92;;;14.80;;
75680;SDS011;64294;49.176;16.626;2022-10-18T05:58:27;28.70;;;14.38;;
75680;SDS011;64294;49.176;16.626;2022-10-18T06:00:52;27.85;;;14.32;;
75680;SDS011;64294;49.176;16.626;2022-10-18T06:03:17;25.20;;;13.50;;
75680;SDS011;64294;49.176;16.626;2022-10-18T06:05:43;26.00;;;13.32;;
75680;SDS011;64294;49.176;16.626;2022-10-18T06:08:08;26.80;;;13.23;;
75680;SDS011;64294;49.176;16.626;2022-10-18T06:10:33;23.17;;;12.63;;
75680;SDS011;64294;49.176;16.626;2022-10-18T06:12:59;23.77;;;11.65;;
75680;SDS011;64294;49.176;16.626;2022-10-18T06:15:24;27.02;;;12.10;;
75680;SDS011;64294;49.176;16.626;2022-10-18T06:17:50;21.58;;;12.50;;
75680;SDS011;64294;49.176;16.626;2022-10-18T06:20:15;24.08;;;11.40;;
75680;SDS011;64294;49.176;16.626;2022-10-18T06:22:41;23.73;;;11.60;;
75680;SDS011;64294;49.176;16.626;2022-10-18T06:25:06;19.65;;;11.02;;
75680;SDS011;64294;49.176;16.626;2022-10-18T06:27:32;21.88;;;10.73;;
75680;SDS011;64294;49.176;16.626;2022-10-18T06:29:58;20.58;;;10.85;;
75680;SDS011;64294;49.176;16.626;2022-10-18T06:32:24;21.45;;;10.40;;
75680;SDS011;64294;49.176;16.626;2022-10-18T06:34:49;20.33;;;10.85;;
75680;SDS011;64294;49.176;16.626;2022-10-18T06:37:14;19.05;;;10.10;;
75680;SDS011;64294;49.176;16.626;2022-10-18T06:39:40;20.02;;;10.73;;
75680;SDS011;64294;49.176;16.626;2022-10-18T06:42:05;20.25;;;10.75;;
75680;SDS011;64294;49.176;16.626;2022-10-18T06:44:30;21.45;;;11.75;;
75680;SDS011;64294;49.176;16.626;2022-10-18T06:46:56;22.23;;;11.05;;
75680;SDS011;64294;49.176;16.626;2022-10-18T06:49:22;21.38;;;12.13;;
75680;SDS011;64294;49.176;16.626;2022-10-18T06:51:48;23.08;;;13.10;;
75680;SDS011;64294;49.176;16.626;2022-10-18T06:54:13;22.05;;;11.50;;
75680;SDS011;64294;49.176;16.626;2022-10-18T06:56:39;22.23;;;11.18;;
75680;SDS011;64294;49.176;16.626;2022-10-18T06:59:04;23.90;;;11.65;;
75680;SDS011;64294;49.176;16.626;2022-10-18T07:01:30;28.10;;;13.05;;
75680;SDS011;64294;49.176;16.626;2022-10-18T07:03:55;27.10;;;12.35;;
75680;SDS011;64294;49.176;16.626;2022-10-18T07:06:22;24.45;;;12.25;;
75680;SDS011;64294;49.176;16.626;2022-10-18T07:08:48;23.88;;;10.98;;
75680;SDS011;64294;49.176;16.626;2022-10-18T07:11:15;23.15;;;10.88;;
75680;SDS011;64294;49.176;16.626;2022-10-18T07:13:42;24.33;;;10.95;;
75680;SDS011;64294;49.176;16.626;2022-10-18T07:16:09;21.38;;;11.30;;
75680;SDS011;64294;49.176;16.626;2022-10-18T07:18:41;23.77;;;11.30;;
75680;SDS011;64294;49.176;16.626;2022-10-18T07:21:09;28.55;;;11.68;;
75680;SDS011;64294;49.176;16.626;2022-10-18T07:23:39;23.25;;;10.65;;
75680;SDS011;64294;49.176;16.626;2022-10-18T07:26:16;26.17;;;11.43;;
75680;SDS011;64294;49.176;16.626;2022-10-18T07:28:45;25.13;;;10.98;;
75680;SDS011;64294;49.176;16.626;2022-10-18T07:31:13;25.17;;;10.85;;
75680;SDS011;64294;49.176;16.626;2022-10-18T07:33:38;22.58;;;9.85;;
75680;SDS011;64294;49.176;16.626;2022-10-18T07:36:05;19.27;;;9.30;;
75680;SDS011;64294;49.176;16.626;2022-10-18T07:38:35;19.15;;;8.82;;
75680;SDS011;64294;49.176;16.626;2022-10-18T07:41:01;21.63;;;8.70;;
75680;SDS011;64294;49.176;16.626;2022-10-18T07:43:30;30.05;;;10.10;;
75680;SDS011;64294;49.176;16.626;2022-10-18T07:45:57;35.80;;;10.27;;
75680;SDS011;64294;49.176;16.626;2022-10-18T07:48:24;35.08;;;10.07;;
75680;SDS011;64294;49.176;16.626;2022-10-18T07:50:50;26.02;;;10.40;;
75680;SDS011;64294;49.176;16.626;2022-10-18T07:53:16;34.25;;;9.73;;
75680;SDS011;64294;49.176;16.626;2022-10-18T07:55:41;28.17;;;9.73;;
75680;SDS011;64294;49.176;16.626;2022-10-18T07:58:08;23.80;;;8.93;;
75680;SDS011;64294;49.176;16.626;2022-10-18T08:00:34;26.23;;;9.07;;
75680;SDS011;64294;49.176;16.626;2022-10-18T08:02:59;18.52;;;8.40;;
75680;SDS011;64294;49.176;16.626;2022-10-18T08:05:26;20.63;;;8.75;;
75680;SDS011;64294;49.176;16.626;2022-10-18T08:07:52;16.10;;;7.80;;
75680;SDS011;64294;49.176;16.626;2022-10-18T08:10:19;14.05;;;7.80;;
75680;SDS011;64294;49.176;16.626;2022-10-18T08:12:45;11.90;;;7.45;;
75680;SDS011;64294;49.176;16.626;2022-10-18T08:15:10;20.98;;;8.02;;
75680;SDS011;64294;49.176;16.626;2022-10-18T08:17:36;22.88;;;7.90;;
75680;SDS011;64294;49.176;16.626;2022-10-18T08:20:02;16.25;;;7.80;;
75680;SDS011;64294;49.176;16.626;2022-10-18T08:22:28;14.45;;;7.32;;
75680;SDS011;64294;49.176;16.626;2022-10-18T08:24:54;14.30;;;7.35;;
75680;SDS011;64294;49.176;16.626;2022-10-18T08:27:19;19.77;;;8.30;;
75680;SDS011;64294;49.176;16.626;2022-10-18T08:29:44;17.20;;;7.75;;
75680;SDS011;64294;49.176;16.626;2022-10-18T08:32:10;12.93;;;6.80;;
75680;SDS011;64294;49.176;16.626;2022-10-18T08:34:35;21.00;;;8.23;;
75680;SDS011;64294;49.176;16.626;2022-10-18T08:37:01;14.57;;;7.88;;
75680;SDS011;64294;49.176;16.626;2022-10-18T08:39:27;12.43;;;7.15;;
75680;SDS011;64294;49.176;16.626;2022-10-18T08:46:55;20.33;;;8.20;;
75680;SDS011;64294;49.176;16.626;2022-10-18T08:52:15;13.52;;;8.32;;
75680;SDS011;64294;49.176;16.626;2022-10-18T08:54:54;12.52;;;7.88;;
75680;SDS011;64294;49.176;16.626;2022-10-18T08:57:26;15.18;;;8.00;;
75680;SDS011;64294;49.176;16.626;2022-10-18T08:59:52;14.48;;;7.82;;
75680;SDS011;64294;49.176;16.626;2022-10-18T09:05:32;11.27;;;7.70;;
75680;SDS011;64294;49.176;16.626;2022-10-18T09:19:39;13.27;;;8.90;;
75680;SDS011;64294;49.176;16.626;2022-10-18T09:27:55;12.20;;;8.10;;
75680;SDS011;64294;49.176;16.626;2022-10-18T09:36:02;13.05;;;8.73;;
75680;SDS011;64294;49.176;16.626;2022-10-18T09:38:31;11.35;;;8.10;;
75680;SDS011;64294;49.176;16.626;2022-10-18T09:44:05;13.27;;;8.70;;
75680;SDS011;64294;49.176;16.626;2022-10-18T09:46:43;12.77;;;8.10;;
75680;SDS011;64294;49.176;16.626;2022-10-18T09:49:18;13.18;;;8.93;;
75680;SDS011;64294;49.176;16.626;2022-10-18T09:51:48;10.40;;;7.80;;
75680;SDS011;64294;49.176;16.626;2022-10-18T09:56:45;11.88;;;8.52;;
75680;SDS011;64294;49.176;16.626;2022-10-18T09:59:29;13.55;;;8.48;;
75680;SDS011;64294;49.176;16.626;2022-10-18T10:02:15;11.73;;;8.75;;
75680;SDS011;64294;49.176;16.626;2022-10-18T10:04:42;11.95;;;8.63;;
75680;SDS011;64294;49.176;16.626;2022-10-18T10:07:11;16.45;;;8.88;;
75680;SDS011;64294;49.176;16.626;2022-10-18T10:09:46;12.55;;;8.35;;
75680;SDS011;64294;49.176;16.626;2022-10-18T10:12:35;29.70;;;9.23;;
75680;SDS011;64294;49.176;16.626;2022-10-18T10:18:04;13.80;;;8.50;;
75680;SDS011;64294;49.176;16.626;2022-10-18T10:20:43;12.95;;;8.07;;
75680;SDS011;64294;49.176;16.626;2022-10-18T10:23:22;12.93;;;8.50;;
75680;SDS011;64294;49.176;16.626;2022-10-18T10:25:51;13.52;;;8.20;;
75680;SDS011;64294;49.176;16.626;2022-10-18T10:28:22;11.70;;;8.63;;
75680;SDS011;64294;49.176;16.626;2022-10-18T10:30:51;10.32;;;8.77;;
75680;SDS011;64294;49.176;16.626;2022-10-18T10:33:31;11.03;;;8.77;;
75680;SDS011;64294;49.176;16.626;2022-10-18T10:36:03;13.18;;;8.98;;
75680;SDS011;64294;49.176;16.626;2022-10-18T10:38:31;11.15;;;8.80;;
75680;SDS011;64294;49.176;16.626;2022-10-18T10:40:56;12.95;;;8.77;;
75680;SDS011;64294;49.176;16.626;2022-10-18T10:45:57;12.73;;;8.88;;
75680;SDS011;64294;49.176;16.626;2022-10-18T10:48:24;12.05;;;8.73;;
75680;SDS011;64294;49.176;16.626;2022-10-18T10:50:51;18.88;;;9.23;;
75680;SDS011;64294;49.176;16.626;2022-10-18T10:53:23;15.43;;;8.52;;
75680;SDS011;64294;49.176;16.626;2022-10-18T10:55:55;15.00;;;9.38;;
75680;SDS011;64294;49.176;16.626;2022-10-18T10:58:22;14.18;;;8.70;;
75680;SDS011;64294;49.176;16.626;2022-10-18T11:00:49;14.30;;;9.65;;
75680;SDS011;64294;49.176;16.626;2022-10-18T11:03:19;14.68;;;11.70;;
75680;SDS011;64294;49.176;16.626;2022-10-18T11:05:55;15.20;;;10.63;;
75680;SDS011;64294;49.176;16.626;2022-10-18T11:08:22;15.18;;;10.10;;
75680;SDS011;64294;49.176;16.626;2022-10-18T11:16:23;13.48;;;10.55;;
75680;SDS011;64294;49.176;16.626;2022-10-18T11:19:26;15.77;;;10.00;;
75680;SDS011;64294;49.176;16.626;2022-10-18T11:21:56;13.82;;;9.68;;
75680;SDS011;64294;49.176;16.626;2022-10-18T11:24:25;13.13;;;9.45;;
75680;SDS011;64294;49.176;16.626;2022-10-18T11:27:39;15.85;;;10.70;;
75680;SDS011;64294;49.176;16.626;2022-10-18T11:32:35;15.07;;;10.23;;
75680;SDS011;64294;49.176;16.626;2022-10-18T11:35:25;16.02;;;9.90;;
75680;SDS011;64294;49.176;16.626;2022-10-18T11:44:08;22.67;;;11.07;;
75680;SDS011;64294;49.176;16.626;2022-10-18T11:49:33;15.23;;;10.63;;
75680;SDS011;64294;49.176;16.626;2022-10-18T11:57:23;16.33;;;10.52;;
75680;SDS011;64294;49.176;16.626;2022-10-18T12:05:37;20.02;;;11.48;;
75680;SDS011;64294;49.176;16.626;2022-10-18T12:08:07;15.10;;;10.38;;
75680;SDS011;64294;49.176;16.626;2022-10-18T12:10:37;17.70;;;10.57;;
75680;SDS011;64294;49.176;16.626;2022-10-18T12:13:06;18.08;;;10.73;;
75680;SDS011;64294;49.176;16.626;2022-10-18T12:15:36;19.10;;;11.48;;
75680;SDS011;64294;49.176;16.626;2022-10-18T12:18:09;17.92;;;11.80;;
75680;SDS011;64294;49.176;16.626;2022-10-18T12:20:44;17.80;;;11.18;;
75680;SDS011;64294;49.176;16.626;2022-10-18T12:23:17;16.85;;;11.48;;
75680;SDS011;64294;49.176;16.626;2022-10-18T12:25:48;20.42;;;11.50;;
75680;SDS011;64294;49.176;16.626;2022-10-18T12:28:36;15.50;;;11.30;;
75680;SDS011;64294;49.176;16.626;2022-10-18T12:31:22;17.73;;;11.55;;
75680;SDS011;64294;49.176;16.626;2022-10-18T12:33:59;21.17;;;11.00;;
75680;SDS011;64294;49.176;16.626;2022-10-18T12:39:25;13.73;;;10.57;;
75680;SDS011;64294;49.176;16.626;2022-10-18T12:42:02;18.75;;;10.98;;
75680;SDS011;64294;49.176;16.626;2022-10-18T12:44:35;17.70;;;11.70;;
75680;SDS011;64294;49.176;16.626;2022-10-18T12:47:01;14.70;;;11.18;;
75680;SDS011;64294;49.176;16.626;2022-10-18T12:49:29;17.10;;;11.05;;
75680;SDS011;64294;49.176;16.626;2022-10-18T12:51:57;19.38;;;11.20;;
75680;SDS011;64294;49.176;16.626;2022-10-18T12:54:35;17.17;;;11.93;;
75680;SDS011;64294;49.176;16.626;2022-10-18T12:57:04;17.20;;;10.50;;
75680;SDS011;64294;49.176;16.626;2022-10-18T12:59:41;19.67;;;11.07;;
75680;SDS011;64294;49.176;16.626;2022-10-18T13:02:13;15.55;;;10.75;;
75680;SDS011;64294;49.176;16.626;2022-10-18T13:04:44;19.00;;;10.95;;
75680;SDS011;64294;49.176;16.626;2022-10-18T13:07:15;15.93;;;10.23;;
75680;SDS011;64294;49.176;16.626;2022-10-18T13:12:41;15.02;;;10.25;;
75680;SDS011;64294;49.176;16.626;2022-10-18T13:15:34;16.00;;;10.98;;
75680;SDS011;64294;49.176;16.626;2022-10-18T13:18:28;16.05;;;10.60;;
75680;SDS011;64294;49.176;16.626;2022-10-18T13:24:01;17.08;;;10.82;;
75680;SDS011;64294;49.176;16.626;2022-10-18T13:26:58;16.38;;;10.75;;
75680;SDS011;64294;49.176;16.626;2022-10-18T13:34:39;15.43;;;9.93;;
75680;SDS011;64294;49.176;16.626;2022-10-18T13:39:34;15.43;;;10.68;;
75680;SDS011;64294;49.176;16.626;2022-10-18T13:44:28;21.38;;;11.65;;
75680;SDS011;64294;49.176;16.626;2022-10-18T13:49:35;26.10;;;10.97;;
75680;SDS011;64294;49.176;16.626;2022-10-18T14:06:10;16.08;;;10.90;;
75680;SDS011;64294;49.176;16.626;2022-10-18T14:08:51;19.75;;;11.88;;
75680;SDS011;64294;49.176;16.626;2022-10-18T14:11:40;18.42;;;11.25;;
75680;SDS011;64294;49.176;16.626;2022-10-18T14:14:16;18.05;;;11.02;;
75680;SDS011;64294;49.176;16.626;2022-10-18T14:19:38;18.05;;;12.95;;
75680;SDS011;64294;49.176;16.626;2022-10-18T14:22:14;18.65;;;12.15;;
75680;SDS011;64294;49.176;16.626;2022-10-18T14:24:44;17.98;;;12.07;;
75680;SDS011;64294;49.176;16.626;2022-10-18T14:27:18;21.50;;;13.52;;
75680;SDS011;64294;49.176;16.626;2022-10-18T14:29:44;24.20;;;13.35;;
75680;SDS011;64294;49.176;16.626;2022-10-18T14:32:23;19.27;;;12.75;;
75680;SDS011;64294;49.176;16.626;2022-10-18T14:34:49;19.83;;;12.82;;
75680;SDS011;64294;49.176;16.626;2022-10-18T14:37:28;23.83;;;13.20;;
75680;SDS011;64294;49.176;16.626;2022-10-18T14:39:57;24.90;;;13.45;;
75680;SDS011;64294;49.176;16.626;2022-10-18T14:42:24;25.17;;;14.50;;
75680;SDS011;64294;49.176;16.626;2022-10-18T14:44:51;23.27;;;13.50;;
75680;SDS011;64294;49.176;16.626;2022-10-18T14:47:20;23.88;;;14.00;;
75680;SDS011;64294;49.176;16.626;2022-10-18T14:49:50;24.15;;;13.23;;
75680;SDS011;64294;49.176;16.626;2022-10-18T14:52:31;22.13;;;14.48;;
75680;SDS011;64294;49.176;16.626;2022-10-18T14:54:58;22.58;;;13.57;;
75680;SDS011;64294;49.176;16.626;2022-10-18T14:57:34;26.65;;;17.55;;
75680;SDS011;64294;49.176;16.626;2022-10-18T15:00:05;34.38;;;18.70;;
75680;SDS011;64294;49.176;16.626;2022-10-18T15:02:34;30.25;;;19.25;;
75680;SDS011;64294;49.176;16.626;2022-10-18T15:05:05;30.85;;;17.27;;
75680;SDS011;64294;49.176;16.626;2022-10-18T15:07:31;36.15;;;19.67;;
75680;SDS011;64294;49.176;16.626;2022-10-18T15:09:57;31.02;;;20.15;;
75680;SDS011;64294;49.176;16.626;2022-10-18T15:12:25;26.23;;;17.10;;
75680;SDS011;64294;49.176;16.626;2022-10-18T15:14:52;29.02;;;15.48;;
75680;SDS011;64294;49.176;16.626;2022-10-18T15:17:25;31.10;;;15.85;;
75680;SDS011;64294;49.176;16.626;2022-10-18T15:22:27;22.13;;;14.85;;
75680;SDS011;64294;49.176;16.626;2022-10-18T15:27:40;28.42;;;18.10;;
75680;SDS011;64294;49.176;16.626;2022-10-18T15:33:01;34.08;;;20.20;;
75680;SDS011;64294;49.176;16.626;2022-10-18T15:35:32;26.50;;;16.77;;
75680;SDS011;64294;49.176;16.626;2022-10-18T15:38:16;29.27;;;16.67;;
75680;SDS011;64294;49.176;16.626;2022-10-18T15:40:52;26.13;;;15.93;;
75680;SDS011;64294;49.176;16.626;2022-10-18T15:45:50;30.13;;;16.90;;
75680;SDS011;64294;49.176;16.626;2022-10-18T15:51:00;26.73;;;16.95;;
75680;SDS011;64294;49.176;16.626;2022-10-18T15:53:34;26.42;;;16.67;;
75680;SDS011;64294;49.176;16.626;2022-10-18T16:01:22;30.73;;;16.63;;
75680;SDS011;64294;49.176;16.626;2022-10-18T16:03:52;28.70;;;16.45;;
75680;SDS011;64294;49.176;16.626;2022-10-18T16:06:18;27.92;;;16.38;;
75680;SDS011;64294;49.176;16.626;2022-10-18T16:08:50;27.02;;;16.98;;
75680;SDS011;64294;49.176;16.626;2022-10-18T16:11:18;29.90;;;16.60;;
75680;SDS011;64294;49.176;16.626;2022-10-18T16:13:46;28.45;;;16.58;;
75680;SDS011;64294;49.176;16.626;2022-10-18T16:16:13;32.90;;;16.98;;
75680;SDS011;64294;49.176;16.626;2022-10-18T16:18:40;31.08;;;17.83;;
75680;SDS011;64294;49.176;16.626;2022-10-18T16:21:09;31.45;;;18.33;;
75680;SDS011;64294;49.176;16.626;2022-10-18T16:23:41;29.38;;;17.48;;
75680;SDS011;64294;49.176;16.626;2022-10-18T16:26:07;30.95;;;17.38;;
75680;SDS011;64294;49.176;16.626;2022-10-18T16:28:33;28.42;;;16.88;;
75680;SDS011;64294;49.176;16.626;2022-10-18T16:30:59;27.77;;;16.92;;
75680;SDS011;64294;49.176;16.626;2022-10-18T16:33:26;32.13;;;16.48;;
75680;SDS011;64294;49.176;16.626;2022-10-18T16:35:52;25.65;;;15.95;;
75680;SDS011;64294;49.176;16.626;2022-10-18T16:38:31;26.73;;;17.05;;
75680;SDS011;64294;49.176;16.626;2022-10-18T16:40:58;25.75;;;17.20;;
75680;SDS011;64294;49.176;16.626;2022-10-18T16:43:24;27.33;;;16.50;;
75680;SDS011;64294;49.176;16.626;2022-10-18T16:45:50;37.08;;;18.02;;
75680;SDS011;64294;49.176;16.626;2022-10-18T16:48:18;32.03;;;18.83;;
75680;SDS011;64294;49.176;16.626;2022-10-18T16:50:44;28.00;;;17.00;;